Mar Maria — 9HA2859 — position and weather

sailwx.info

Track history (hours):
 
Tides and Currents Weather Stations Pressure Air Temp Water Temp Dewpoint Dewpoint Depression Visibility Wind Speed Wind Dir Waves Ship Positions

Mar Maria

Last reported at 2014-Sep-19 20:30 UTC. Time now 2014-Sep-19 23:51 UTC.
Position N 41°21' E 002°09'.

Length 103 m; draft 5.7 m.

Type: Tanker. MMSI: 256435000.

Date/timePositionNaut miles runAvg speedWind from/ knotsBaromVisibWave heightAir tempDewpointWater temp
2014-Sep-19 20:30N 41°21' E 002°09'1 0.1
2014-Sep-19 08:18N 41°20' E 002°10'2 0.1
2014-Sep-18 17:06N 41°18' E 002°11'711.5
2014-Sep-18 16:28N 41°11' E 002°09'1413.1
2014-Sep-18 15:24N 40°58' E 002°06'  
2014-Sep-16 04:13N 40°41' E 001°49'710.3
2014-Sep-16 03:32N 40°35' E 001°46'1010.4
2014-Sep-16 02:33N 40°25' E 001°41'0 0.3
2014-Sep-16 01:33N 40°25' E 001°41'8 3.2
2014-Sep-15 23:05N 40°19' E 001°34'16 9.8
2014-Sep-15 21:28N 40°07' E 001°47'10 8.8
2014-Sep-15 20:22N 39°58' E 001°51'910.1
2014-Sep-15 19:29N 39°51' E 001°42'  
2014-Sep-12 19:23N 39°28' E 000°52'0 0.4
2014-Sep-12 18:29N 39°28' E 000°52'1 0.5
2014-Sep-12 17:05N 39°27' E 000°52'2 0.5
2014-Sep-12 14:11N 39°26' E 000°53'2 0.6
2014-Sep-12 11:04N 39°26' E 000°56'5 2.6
2014-Sep-12 09:17N 39°21' E 000°54'910.3
2014-Sep-12 08:23N 39°13' E 000°49'910.4
2014-Sep-12 07:33N 39°05' E 000°44'2110.2
2014-Sep-12 05:33N 38°47' E 000°31'1010.2
2014-Sep-12 04:33N 38°38' E 000°25'1010.3
2014-Sep-12 03:33N 38°30' E 000°17'1010.3
2014-Sep-12 02:33N 38°21' E 000°10'1210.5
2014-Sep-12 01:24N 38°11' E 000°01'910.5
2014-Sep-12 00:33N 38°03' W 000°05'1110.6
2014-Sep-11 23:33N 37°55' W 000°12'1110.6
2014-Sep-11 22:33N 37°46' W 000°20'1110.6
2014-Sep-11 21:33N 37°37' W 000°27'1210.7
2014-Sep-11 20:25N 37°29' W 000°39'910.4
2014-Sep-11 19:31N 37°29' W 000°51'  
Track history (hours):
 
Tides and Currents Weather Stations Pressure Air Temp Water Temp Dewpoint Dewpoint Depression Visibility Wind Speed Wind Dir Waves Ship Positions

Mar Maria

Last reported at 2014-Sep-19 20:30 UTC. Time now 2014-Sep-19 23:51 UTC.
Position N 41°21' E 002°09'.

Length 103 m; draft 5.7 m.

Type: Tanker. MMSI: 256435000.

Date/timePositionNaut miles runAvg speedWind from/ knotsBaromVisibWave heightAir tempDewpointWater temp
2014-Sep-19 20:30N 41°21' E 002°09'1 0.1
2014-Sep-19 08:18N 41°20' E 002°10'2 0.1
2014-Sep-18 17:06N 41°18' E 002°11'711.5
2014-Sep-18 16:28N 41°11' E 002°09'1413.1
2014-Sep-18 15:24N 40°58' E 002°06'  
2014-Sep-16 04:13N 40°41' E 001°49'710.3
2014-Sep-16 03:32N 40°35' E 001°46'1010.4
2014-Sep-16 02:33N 40°25' E 001°41'0 0.3
2014-Sep-16 01:33N 40°25' E 001°41'8 3.2
2014-Sep-15 23:05N 40°19' E 001°34'16 9.8
2014-Sep-15 21:28N 40°07' E 001°47'10 8.8
2014-Sep-15 20:22N 39°58' E 001°51'910.1
2014-Sep-15 19:29N 39°51' E 001°42'  
2014-Sep-12 19:23N 39°28' E 000°52'0 0.4
2014-Sep-12 18:29N 39°28' E 000°52'1 0.5
2014-Sep-12 17:05N 39°27' E 000°52'2 0.5
2014-Sep-12 14:11N 39°26' E 000°53'2 0.6
2014-Sep-12 11:04N 39°26' E 000°56'5 2.6
2014-Sep-12 09:17N 39°21' E 000°54'910.3
2014-Sep-12 08:23N 39°13' E 000°49'910.4
2014-Sep-12 07:33N 39°05' E 000°44'2110.2
2014-Sep-12 05:33N 38°47' E 000°31'1010.2
2014-Sep-12 04:33N 38°38' E 000°25'1010.3
2014-Sep-12 03:33N 38°30' E 000°17'1010.3
2014-Sep-12 02:33N 38°21' E 000°10'1210.5
2014-Sep-12 01:24N 38°11' E 000°01'910.5
2014-Sep-12 00:33N 38°03' W 000°05'1110.6
2014-Sep-11 23:33N 37°55' W 000°12'1110.6
2014-Sep-11 22:33N 37°46' W 000°20'1110.6
2014-Sep-11 21:33N 37°37' W 000°27'1210.7
2014-Sep-11 20:25N 37°29' W 000°39'910.4
2014-Sep-11 19:31N 37°29' W 000°51'  

Dump ship's entire track history